Time;durP1;ratioP1;P1;durP2;ratioP2;P2;SDS_P1;SDS_P2;PMS_P1;PMS_P2;Temp;Humidity;BMP_temperature;BMP_pressure;BME280_temperature;BME280_humidity;BME280_pressure;Samples;Min_cycle;Max_cycle;Signal;HPM_P1;HPM_P2
2021/01/29 00:01:48;;;;;;;3.78;0.82;;;10.00;99.90;;;;;;5094229;28;20024;-63
2021/01/29 00:04:14;;;;;;;5.88;1.02;;;10.00;99.90;;;;;;5096300;28;20034;-66
2021/01/29 00:06:40;;;;;;;3.03;0.80;;;10.00;99.90;;;;;;5085003;28;20400;-68
2021/01/29 00:09:06;;;;;;;6.50;0.82;;;10.00;99.90;;;;;;5075306;28;20036;-61
2021/01/29 00:11:32;;;;;;;3.05;0.65;;;10.00;99.90;;;;;;5074078;28;20024;-61
2021/01/29 00:13:57;;;;;;;4.18;0.88;;;10.00;99.90;;;;;;5073751;28;20039;-61
2021/01/29 00:16:23;;;;;;;2.92;0.85;;;10.10;99.90;;;;;;5074950;28;20390;-63
2021/01/29 00:18:49;;;;;;;3.70;1.00;;;10.00;99.90;;;;;;5074505;28;20033;-61
2021/01/29 00:21:14;;;;;;;5.07;0.73;;;10.00;99.90;;;;;;5075137;28;20078;-62
2021/01/29 00:23:40;;;;;;;3.00;1.05;;;10.00;99.90;;;;;;5074200;28;20021;-65
2021/01/29 00:26:06;;;;;;;5.97;0.98;;;10.00;99.90;;;;;;5073414;28;20028;-64
2021/01/29 00:28:31;;;;;;;3.53;0.80;;;10.00;99.90;;;;;;5074087;28;20456;-62
2021/01/29 00:30:57;;;;;;;4.75;1.02;;;10.00;99.90;;;;;;5072928;28;20500;-64
2021/01/29 00:33:25;;;;;;;6.50;0.90;;;10.00;99.90;;;;;;5073907;28;20028;-61
2021/01/29 00:35:51;;;;;;;4.28;1.15;;;10.00;99.90;;;;;;5074868;28;20028;-61
2021/01/29 00:38:16;;;;;;;3.50;1.10;;;10.10;99.90;;;;;;5073820;28;20035;-60
2021/01/29 00:40:42;;;;;;;3.50;1.10;;;10.10;99.90;;;;;;5072405;28;20378;-64
2021/01/29 00:43:08;;;;;;;4.78;1.30;;;10.10;99.90;;;;;;5073784;28;20043;-65
2021/01/29 00:45:37;;;;;;;5.32;1.30;;;10.10;99.90;;;;;;5056622;28;20447;-62
2021/01/29 00:48:04;;;;;;;4.55;1.70;;;10.10;99.90;;;;;;5074070;28;20626;-62
2021/01/29 00:50:30;;;;;;;6.90;2.35;;;10.10;99.90;;;;;;5072538;28;20028;-63
2021/01/29 00:52:56;;;;;;;5.53;2.65;;;10.10;99.90;;;;;;5055179;28;20086;-60
2021/01/29 00:55:23;;;;;;;4.35;1.42;;;10.10;99.90;;;;;;5071979;28;20078;-63
2021/01/29 00:57:48;;;;;;;3.70;1.35;;;10.10;99.90;;;;;;5072516;28;20458;-63
2021/01/29 01:00:16;;;;;;;7.10;1.55;;;10.10;99.90;;;;;;5074113;28;20047;-65
2021/01/29 01:02:41;;;;;;;4.43;1.58;;;10.10;99.90;;;;;;5073792;28;20082;-62
2021/01/29 01:05:08;;;;;;;3.38;1.15;;;10.20;99.90;;;;;;5073739;28;20029;-60
2021/01/29 01:07:33;;;;;;;3.75;1.42;;;10.10;99.90;;;;;;5074286;28;20021;-61
2021/01/29 01:09:59;;;;;;;7.18;1.48;;;10.10;99.90;;;;;;5071363;28;20051;-62
2021/01/29 01:12:25;;;;;;;3.67;0.77;;;10.10;99.90;;;;;;5073819;28;20035;-61
2021/01/29 01:14:51;;;;;;;2.65;0.90;;;10.20;99.90;;;;;;5071660;28;20193;-61
2021/01/29 01:17:17;;;;;;;5.57;1.17;;;10.10;99.90;;;;;;5072588;28;20107;-61
2021/01/29 01:19:43;;;;;;;3.25;0.57;;;10.10;99.90;;;;;;5074078;28;20036;-61
2021/01/29 01:22:09;;;;;;;2.22;0.63;;;10.10;99.90;;;;;;5072706;28;20028;-62
2021/01/29 01:24:41;;;;;;;6.35;1.98;;;10.10;99.90;;;;;;5072562;28;20119;-61
2021/01/29 01:27:10;;;;;;;;;;;10.10;99.90;;;;;;5073826;28;20024;-60
2021/01/29 01:29:36;;;;;;;1.90;0.57;;;10.20;99.90;;;;;;5072669;28;19991;-60
2021/01/29 01:32:03;;;;;;;2.25;0.60;;;10.10;99.90;;;;;;5073323;28;20058;-60
2021/01/29 01:34:29;;;;;;;3.08;0.45;;;10.10;99.90;;;;;;5073998;28;20513;-61
2021/01/29 01:36:55;;;;;;;2.95;0.73;;;10.20;99.90;;;;;;5072288;28;20072;-64
2021/01/29 01:39:22;;;;;;;2.47;0.45;;;10.10;99.90;;;;;;5071731;28;20021;-61
2021/01/29 01:41:48;;;;;;;1.10;0.40;;;10.10;99.90;;;;;;5071687;28;20029;-65
2021/01/29 01:44:39;;;;;;;1.75;0.57;;;10.10;99.90;;;;;;5073477;28;20028;-65
2021/01/29 01:47:34;;;;;;;2.80;0.68;;;10.00;99.90;;;;;;5072502;28;20158;-62
2021/01/29 01:50:52;;;;;;;2.05;0.60;;;10.00;99.90;;;;;;5071067;28;20032;-63
2021/01/29 01:53:41;;;;;;;0.75;0.22;;;10.00;99.90;;;;;;5062795;28;20039;-60
2021/01/29 01:56:28;;;;;;;3.47;0.43;;;10.00;99.90;;;;;;5072326;28;20029;-62
2021/01/29 01:59:00;;;;;;;3.65;0.63;;;9.90;99.90;;;;;;5071191;28;20482;-66
2021/01/29 02:01:26;;;;;;;1.80;0.50;;;10.00;99.90;;;;;;5092184;28;20035;-60
2021/01/29 02:03:54;;;;;;;1.73;0.30;;;9.90;99.90;;;;;;5090779;28;20028;-61
2021/01/29 02:06:21;;;;;;;2.13;0.65;;;9.90;99.90;;;;;;5092104;28;20028;-63
2021/01/29 02:08:47;;;;;;;4.10;0.60;;;9.90;99.90;;;;;;5092440;28;20119;-67
2021/01/29 02:11:15;;;;;;;3.95;0.45;;;9.90;99.90;;;;;;5093403;28;20115;-61
2021/01/29 02:13:41;;;;;;;2.88;0.60;;;9.90;99.90;;;;;;5093194;28;20066;-64
2021/01/29 02:16:20;;;;;;;2.03;1.00;;;9.90;99.90;;;;;;5092044;28;20083;-60
2021/01/29 02:18:51;;;;;;;1.10;0.22;;;9.90;99.90;;;;;;5092163;28;20040;-61
2021/01/29 02:22:05;;;;;;;8.38;1.27;;;9.90;99.90;;;;;;5092687;28;20024;-66
2021/01/29 02:24:49;;;;;;;2.00;0.65;;;9.80;99.90;;;;;;5091643;28;20149;-65
2021/01/29 02:27:41;;;;;;;1.60;0.45;;;9.90;99.90;;;;;;5091976;28;20047;-60
2021/01/29 02:30:19;;;;;;;3.85;0.40;;;9.80;99.90;;;;;;5091935;28;20817;-62
2021/01/29 02:33:23;;;;;;;1.45;0.30;;;9.80;99.90;;;;;;5091515;28;20055;-62
2021/01/29 02:36:03;;;;;;;3.15;0.40;;;9.80;99.90;;;;;;5092207;28;20081;-67
2021/01/29 02:38:32;;;;;;;2.35;0.30;;;9.80;99.90;;;;;;5088851;28;20042;-62
2021/01/29 02:41:19;;;;;;;4.88;1.02;;;9.80;99.90;;;;;;5071622;28;20029;-60
2021/01/29 02:44:02;;;;;;;3.47;0.63;;;9.80;99.90;;;;;;5071463;28;20370;-63
2021/01/29 02:46:51;;;;;;;1.25;0.38;;;9.80;99.90;;;;;;5072551;28;20048;-61
2021/01/29 02:49:32;;;;;;;2.05;0.60;;;9.80;99.90;;;;;;5071469;28;20090;-61
2021/01/29 02:52:06;;;;;;;2.75;0.70;;;9.70;99.90;;;;;;5071536;28;20090;-61
2021/01/29 02:54:41;;;;;;;2.55;0.90;;;9.70;99.90;;;;;;5071596;28;20082;-64
2021/01/29 02:57:44;;;;;;;2.75;1.08;;;9.70;99.90;;;;;;5070693;28;20029;-60
2021/01/29 03:00:12;;;;;;;2.50;0.52;;;9.70;99.90;;;;;;5030164;28;20037;-60
2021/01/29 03:02:50;;;;;;;2.70;1.25;;;9.70;99.90;;;;;;5071077;28;20024;-60
2021/01/29 03:05:20;;;;;;;4.80;1.00;;;9.60;99.90;;;;;;5070640;28;20040;-62
2021/01/29 03:08:05;;;;;;;3.85;0.90;;;9.60;99.90;;;;;;5071437;28;20102;-61
2021/01/29 03:10:41;;;;;;;3.88;1.10;;;9.60;99.90;;;;;;5071966;28;20029;-62
2021/01/29 03:13:17;;;;;;;1.52;1.05;;;9.50;99.90;;;;;;5071438;28;20039;-62
2021/01/29 03:15:53;;;;;;;3.60;1.00;;;9.50;99.90;;;;;;5069833;28;20486;-60
2021/01/29 03:18:21;;;;;;;3.83;1.17;;;9.50;99.90;;;;;;5071909;28;20024;-62
2021/01/29 03:21:15;;;;;;;3.47;1.40;;;9.50;99.90;;;;;;5072367;28;20063;-61
2021/01/29 03:24:01;;;;;;;1.13;0.90;;;9.40;99.90;;;;;;5072337;28;20038;-61
2021/01/29 03:26:36;;;;;;;3.47;1.83;;;9.50;99.90;;;;;;5071026;28;20033;-61
2021/01/29 03:29:08;;;;;;;4.28;1.38;;;9.50;99.90;;;;;;5070678;28;20130;-63
2021/01/29 03:31:37;;;;;;;1.98;1.10;;;9.40;99.90;;;;;;5071379;28;20111;-62
2021/01/29 03:34:10;;;;;;;3.67;1.58;;;9.40;99.90;;;;;;5075494;28;20028;-61
2021/01/29 03:36:45;;;;;;;6.18;1.80;;;9.50;99.90;;;;;;5076302;28;20059;-61
2021/01/29 03:39:26;;;;;;;3.38;1.23;;;9.50;99.90;;;;;;5074386;28;20038;-62
2021/01/29 03:42:04;;;;;;;6.43;1.80;;;9.50;99.90;;;;;;5076340;28;20446;-66
2021/01/29 03:44:42;;;;;;;5.03;1.50;;;9.40;99.90;;;;;;5075928;28;20054;-62
2021/01/29 03:47:18;;;;;;;3.65;1.42;;;9.40;99.90;;;;;;5074819;28;20495;-62
2021/01/29 03:50:19;;;;;;;2.70;1.58;;;9.50;99.90;;;;;;5081976;28;20016;-61
2021/01/29 03:52:50;;;;;;;5.63;1.70;;;9.60;99.90;;;;;;5095945;28;20024;-60
2021/01/29 03:55:33;;;;;;;2.80;1.60;;;9.40;99.90;;;;;;5094085;28;20294;-62
2021/01/29 03:58:29;;;;;;;4.15;2.20;;;9.50;99.90;;;;;;5094203;28;20119;-62
2021/01/29 04:01:45;;;;;;;3.63;2.60;;;9.60;99.90;;;;;;5095108;28;20377;-65
2021/01/29 04:04:33;;;;;;;3.72;3.33;;;9.60;99.90;;;;;;5059932;28;20036;-60
2021/01/29 04:07:25;;;;;;;4.03;3.60;;;9.60;99.90;;;;;;5093443;28;20036;-60
2021/01/29 04:10:05;;;;;;;;;;;9.60;99.90;;;;;;5094295;28;20539;-61
2021/01/29 04:12:30;;;;;;;5.28;4.78;;;9.60;99.90;;;;;;5094051;28;20361;-61
2021/01/29 04:15:18;;;;;;;7.68;4.90;;;9.70;99.90;;;;;;5093685;28;20032;-66
2021/01/29 04:18:01;;;;;;;7.50;5.60;;;9.70;99.90;;;;;;5094187;28;20130;-60
2021/01/29 04:20:46;;;;;;;8.82;4.45;;;9.70;99.90;;;;;;5093804;28;20056;-60
2021/01/29 04:23:34;;;;;;;5.78;5.05;;;9.60;99.90;;;;;;5093260;28;20026;-61
2021/01/29 04:26:07;;;;;;;6.95;5.60;;;9.60;99.90;;;;;;5093601;28;20459;-62
2021/01/29 04:28:38;;;;;;;8.73;6.90;;;9.50;99.90;;;;;;5077854;28;20024;-61
2021/01/29 04:31:05;;;;;;;6.23;5.33;;;9.60;99.90;;;;;;5094365;28;20028;-61
2021/01/29 04:33:38;;;;;;;13.48;6.03;;;9.70;99.90;;;;;;5095076;28;20041;-60
2021/01/29 04:36:06;;;;;;;10.13;6.53;;;9.60;99.90;;;;;;5092892;28;20099;-61
2021/01/29 04:38:35;;;;;;;8.35;5.85;;;9.70;99.90;;;;;;5092889;28;20020;-60
2021/01/29 04:41:27;;;;;;;22.55;6.97;;;9.70;99.90;;;;;;5092596;28;20028;-61
2021/01/29 04:44:30;;;;;;;8.50;5.70;;;9.70;99.90;;;;;;5092187;28;20494;-60
2021/01/29 04:47:22;;;;;;;6.88;5.03;;;9.70;99.90;;;;;;5094580;28;20031;-66
2021/01/29 04:50:16;;;;;;;7.05;5.90;;;9.60;99.90;;;;;;5079084;28;20020;-61
2021/01/29 04:53:15;;;;;;;6.25;4.93;;;9.70;99.90;;;;;;5094711;28;20470;-61
2021/01/29 04:56:15;;;;;;;7.25;5.82;;;9.80;99.90;;;;;;5092168;28;20039;-63
2021/01/29 04:59:17;;;;;;;5.47;4.78;;;9.80;99.90;;;;;;5094440;28;20031;-69
2021/01/29 05:02:08;;;;;;;16.85;8.30;;;9.70;99.90;;;;;;5093396;28;20039;-64
2021/01/29 05:04:52;;;;;;;9.07;6.25;;;11.10;99.90;;;;;;5093243;28;20027;-62
2021/01/29 05:07:42;;;;;;;9.50;7.35;;;11.20;99.90;;;;;;5093809;28;20021;-61
2021/01/29 05:10:19;;;;;;;4.43;4.03;;;11.20;99.90;;;;;;5092518;28;20024;-67
2021/01/29 05:13:15;;;;;;;5.80;3.88;;;10.80;99.90;;;;;;5092740;28;20410;-59
2021/01/29 05:15:49;;;;;;;4.22;3.65;;;10.50;99.90;;;;;;5092616;28;20064;-60
2021/01/29 05:18:33;;;;;;;6.40;4.15;;;10.20;99.90;;;;;;5093283;28;20362;-63
2021/01/29 05:21:05;;;;;;;4.85;4.07;;;10.10;99.90;;;;;;5092431;28;20028;-61
2021/01/29 05:23:52;;;;;;;5.35;4.72;;;10.10;99.90;;;;;;5094054;28;20024;-62
2021/01/29 05:26:49;;;;;;;5.32;4.80;;;10.00;99.90;;;;;;5092908;28;20606;-68
2021/01/29 05:29:26;;;;;;;7.00;5.40;;;10.00;99.90;;;;;;5022696;28;20036;-63
2021/01/29 05:32:03;;;;;;;6.03;5.43;;;10.00;99.90;;;;;;5094110;28;20035;-66
2021/01/29 05:34:58;;;;;;;7.10;5.63;;;9.90;99.90;;;;;;5093905;28;20118;-61
2021/01/29 05:37:58;;;;;;;9.63;6.47;;;9.90;99.90;;;;;;5064032;28;20118;-59
2021/01/29 05:40:52;;;;;;;7.35;6.60;;;9.90;99.90;;;;;;5091811;28;20058;-65
2021/01/29 05:43:42;;;;;;;5.95;5.07;;;9.90;99.90;;;;;;5093012;28;20084;-60
2021/01/29 05:46:19;;;;;;;6.43;5.53;;;9.90;99.90;;;;;;5072599;28;20033;-60
2021/01/29 05:49:06;;;;;;;5.35;4.47;;;9.90;99.90;;;;;;5073286;28;20020;-65
2021/01/29 05:52:04;;;;;;;4.47;3.83;;;9.90;99.90;;;;;;5072194;28;20370;-61
2021/01/29 05:54:52;;;;;;;5.25;3.67;;;9.90;99.90;;;;;;5070728;28;20107;-60
2021/01/29 05:57:55;;;;;;;3.88;3.17;;;9.90;99.90;;;;;;5071348;28;20482;-61
2021/01/29 06:00:27;;;;;;;3.42;2.88;;;10.00;99.90;;;;;;5070830;28;20059;-61
2021/01/29 06:03:04;;;;;;;;;;;10.00;99.90;;;;;;5073585;28;20020;-63
2021/01/29 06:05:53;;;;;;;2.80;2.10;;;10.00;99.90;;;;;;5073071;28;19904;-65
2021/01/29 06:08:32;;;;;;;3.20;2.50;;;10.00;99.90;;;;;;5073566;28;20463;-67
2021/01/29 06:11:10;;;;;;;3.88;2.70;;;9.90;99.90;;;;;;5074308;28;20036;-62
2021/01/29 06:14:00;;;;;;;2.60;2.40;;;10.00;99.90;;;;;;5072873;28;20041;-60
2021/01/29 06:16:38;;;;;;;2.90;2.50;;;10.00;99.90;;;;;;5071690;28;20053;-64
2021/01/29 06:19:40;;;;;;;4.40;2.80;;;10.00;99.90;;;;;;5071459;28;20028;-63
2021/01/29 06:22:30;;;;;;;3.38;3.08;;;10.00;99.90;;;;;;5072593;28;20397;-61
2021/01/29 06:25:20;;;;;;;3.83;3.00;;;9.90;99.90;;;;;;5072773;28;20039;-64
2021/01/29 06:27:56;;;;;;;2.78;2.58;;;9.90;99.90;;;;;;5071252;28;20025;-62
2021/01/29 06:30:50;;;;;;;3.60;3.13;;;9.90;99.90;;;;;;5071762;28;20125;-65
2021/01/29 06:33:25;;;;;;;3.10;2.80;;;10.00;99.90;;;;;;5070812;28;20078;-63
2021/01/29 06:36:02;;;;;;;3.83;3.40;;;10.00;99.90;;;;;;5072602;28;20044;-61
2021/01/29 06:38:55;;;;;;;3.58;3.00;;;10.00;99.90;;;;;;5070758;28;20123;-60
2021/01/29 06:42:32;;;;;;;4.07;3.67;;;10.00;99.90;;;;;;5070580;28;20055;-60
2021/01/29 06:45:29;;;;;;;6.57;3.80;;;10.00;99.90;;;;;;4959062;28;20093;-61
2021/01/29 06:48:06;;;;;;;3.42;3.13;;;10.00;99.90;;;;;;5002411;28;20036;-62
2021/01/29 06:50:59;;;;;;;3.55;2.95;;;10.00;99.90;;;;;;5088041;28;20060;-62
2021/01/29 06:53:53;;;;;;;2.17;1.85;;;10.00;99.90;;;;;;5089838;28;20028;-62
2021/01/29 06:56:50;;;;;;;1.00;0.90;;;10.00;99.90;;;;;;5089797;28;20052;-61
2021/01/29 06:59:26;;;;;;;0.60;0.30;;;10.10;99.90;;;;;;5087605;28;20043;-63
2021/01/29 07:02:03;;;;;;;0.60;0.30;;;10.20;99.90;;;;;;5088467;28;20073;-65
2021/01/29 07:05:20;;;;;;;0.10;0.10;;;10.10;99.90;;;;;;5086507;28;20063;-62
2021/01/29 07:08:23;;;;;;;0.30;0.22;;;10.10;99.90;;;;;;5049360;28;20029;-62
2021/01/29 07:11:13;;;;;;;1.13;0.30;;;10.20;99.90;;;;;;5079251;28;20020;-61
2021/01/29 07:14:04;;;;;;;4.43;0.30;;;10.10;99.90;;;;;;5092926;28;20374;-64
2021/01/29 07:16:35;;;;;;;6.07;0.75;;;10.10;99.90;;;;;;5092633;28;20048;-63
2021/01/29 07:19:07;;;;;;;;;;;10.10;99.90;;;;;;5087190;28;20382;-60
2021/01/29 07:21:54;;;;;;;2.33;0.50;;;10.10;99.90;;;;;;5092818;28;19908;-62
2021/01/29 07:24:58;;;;;;;6.97;0.30;;;10.00;99.90;;;;;;5093813;28;20489;-63
2021/01/29 07:27:42;;;;;;;4.15;0.20;;;9.90;99.90;;;;;;5093110;28;20028;-61
2021/01/29 07:30:26;;;;;;;2.08;0.25;;;9.90;99.90;;;;;;5093402;28;20046;-65
2021/01/29 07:33:00;;;;;;;1.50;0.10;;;9.80;99.90;;;;;;5095968;28;20385;-60
2021/01/29 07:35:44;;;;;;;5.68;0.45;;;9.80;99.90;;;;;;5084124;28;20223;-61
2021/01/29 07:38:34;;;;;;;12.73;0.57;;;9.80;99.90;;;;;;5091308;28;20035;-61
2021/01/29 07:41:11;;;;;;;0.13;0.00;;;9.70;99.90;;;;;;5095019;28;20020;-61
2021/01/29 07:43:52;;;;;;;1.27;0.10;;;9.70;99.90;;;;;;5094261;28;20036;-61
2021/01/29 07:46:47;;;;;;;4.25;0.20;;;9.70;99.90;;;;;;5093610;28;20350;-62
2021/01/29 07:49:51;;;;;;;0.57;0.20;;;9.70;99.90;;;;;;5095128;28;20032;-61
2021/01/29 07:52:20;;;;;;;0.40;0.10;;;9.60;99.90;;;;;;5095006;28;20381;-61
2021/01/29 07:54:48;;;;;;;1.85;0.35;;;9.60;99.90;;;;;;5094700;28;20081;-62
2021/01/29 07:57:42;;;;;;;3.00;0.20;;;9.60;99.90;;;;;;5094594;28;20028;-61
2021/01/29 08:00:20;;;;;;;2.28;0.32;;;9.70;99.90;;;;;;5093497;28;20085;-66
2021/01/29 08:03:11;;;;;;;5.47;0.38;;;9.60;99.90;;;;;;5094324;28;20031;-61
2021/01/29 08:05:42;;;;;;;3.95;0.22;;;9.70;99.90;;;;;;5082875;28;20024;-62
2021/01/29 08:08:15;;;;;;;0.85;0.10;;;9.60;99.90;;;;;;5092261;28;20111;-61
2021/01/29 08:10:45;;;;;;;4.30;0.10;;;9.60;99.90;;;;;;5095698;28;20028;-63
2021/01/29 08:13:32;;;;;;;0.77;0.20;;;9.70;99.90;;;;;;5093458;28;20043;-66
2021/01/29 08:16:12;;;;;;;3.50;0.30;;;9.60;99.90;;;;;;5093264;28;20048;-62
2021/01/29 08:19:02;;;;;;;1.35;0.40;;;9.60;99.90;;;;;;5094775;28;20024;-61
2021/01/29 08:22:06;;;;;;;0.68;0.10;;;9.60;99.90;;;;;;5094763;28;20026;-60
2021/01/29 08:24:43;;;;;;;0.30;0.10;;;9.50;99.90;;;;;;5094651;28;20025;-64
2021/01/29 08:27:38;;;;;;;6.97;0.30;;;9.50;99.90;;;;;;5093366;28;20051;-65
2021/01/29 08:30:22;;;;;;;1.17;0.10;;;9.50;99.90;;;;;;5094741;28;20376;-62
2021/01/29 08:33:30;;;;;;;2.13;0.32;;;9.50;99.90;;;;;;5093140;28;20114;-62
2021/01/29 08:36:18;;;;;;;3.35;0.20;;;9.40;99.90;;;;;;5045523;28;20124;-60
2021/01/29 08:38:58;;;;;;;5.13;0.30;;;9.30;99.90;;;;;;5094326;28;20024;-62
2021/01/29 08:41:42;;;;;;;1.67;0.30;;;9.40;99.90;;;;;;5092807;28;20113;-64
2021/01/29 08:44:43;;;;;;;0.70;0.10;;;9.40;99.90;;;;;;5093581;28;20175;-66
2021/01/29 08:47:37;;;;;;;0.75;0.10;;;9.30;99.90;;;;;;5094040;28;20077;-66
2021/01/29 08:50:42;;;;;;;2.67;0.20;;;9.30;99.90;;;;;;5093992;28;20025;-61
2021/01/29 08:53:34;;;;;;;2.78;0.20;;;9.40;99.90;;;;;;5095425;28;20020;-66
2021/01/29 08:56:06;;;;;;;3.58;0.30;;;9.30;99.90;;;;;;5093386;28;20435;-62
2021/01/29 08:59:03;;;;;;;0.22;0.10;;;9.30;99.90;;;;;;5093203;28;20032;-65
2021/01/29 09:01:58;;;;;;;0.95;0.20;;;9.40;99.90;;;;;;5073371;28;20266;-68
2021/01/29 09:04:50;;;;;;;2.05;0.20;;;9.40;99.90;;;;;;5093915;28;20081;-63
2021/01/29 09:07:21;;;;;;;;;;;9.40;99.90;;;;;;5094285;28;20481;-61
2021/01/29 09:09:49;;;;;;;1.30;0.30;;;9.40;99.90;;;;;;5078042;28;19915;-61
2021/01/29 09:12:24;;;;;;;4.65;0.25;;;9.50;99.90;;;;;;5073521;28;20036;-62
2021/01/29 09:15:01;;;;;;;3.42;0.20;;;9.50;99.90;;;;;;5072748;28;20024;-61
2021/01/29 09:17:45;;;;;;;3.97;1.30;;;9.50;99.90;;;;;;5072309;28;20504;-62
2021/01/29 09:20:12;;;;;;;2.45;0.38;;;9.60;99.90;;;;;;5074177;28;20028;-69
2021/01/29 09:22:54;;;;;;;7.82;1.02;;;9.70;99.90;;;;;;5074161;28;20024;-65
2021/01/29 09:25:26;;;;;;;;;;;9.70;99.90;;;;;;5074033;28;20024;-62
2021/01/29 09:28:16;;;;;;;7.00;0.77;;;9.70;99.90;;;;;;5074229;28;19927;-66
2021/01/29 09:30:56;;;;;;;4.13;0.38;;;9.70;99.90;;;;;;5059847;28;20031;-62
2021/01/29 09:33:25;;;;;;;2.47;0.60;;;9.80;99.90;;;;;;5072426;28;20021;-64
2021/01/29 09:36:22;;;;;;;7.00;0.80;;;9.80;99.90;;;;;;5074335;28;20382;-62
2021/01/29 09:38:55;;;;;;;2.95;0.47;;;9.90;99.90;;;;;;5073897;28;20021;-64
2021/01/29 09:41:47;;;;;;;2.35;0.47;;;9.90;99.90;;;;;;5070510;28;20181;-62
2021/01/29 09:44:41;;;;;;;5.55;0.75;;;10.00;99.90;;;;;;5073399;28;20082;-71
2021/01/29 09:47:09;;;;;;;6.80;0.75;;;10.00;99.90;;;;;;5072066;28;20041;-67
2021/01/29 09:49:40;;;;;;;5.47;0.95;;;10.10;99.90;;;;;;5075589;28;20488;-62
2021/01/29 09:52:30;;;;;;;8.73;0.90;;;10.10;99.90;;;;;;5092669;28;20384;-62
2021/01/29 09:55:07;;;;;;;7.30;0.98;;;10.20;99.90;;;;;;5093308;28;20035;-62
2021/01/29 09:58:07;;;;;;;7.70;0.95;;;10.20;99.90;;;;;;5091669;28;20107;-62
2021/01/29 10:00:35;;;;;;;10.13;1.83;;;10.20;99.90;;;;;;5092411;28;20165;-60
2021/01/29 10:03:13;;;;;;;9.40;1.63;;;10.30;99.90;;;;;;5091987;28;20020;-64
2021/01/29 10:06:00;;;;;;;8.73;1.73;;;10.30;99.90;;;;;;5087400;28;20036;-66
2021/01/29 10:08:33;;;;;;;6.43;1.35;;;10.30;99.90;;;;;;5072258;28;20039;-63
2021/01/29 10:11:01;;;;;;;8.20;1.33;;;10.40;99.90;;;;;;5072807;28;20029;-62
2021/01/29 10:13:55;;;;;;;9.68;2.03;;;10.40;99.90;;;;;;5071197;28;20441;-61
2021/01/29 10:16:24;;;;;;;7.70;1.35;;;10.40;99.90;;;;;;5070605;28;20049;-62
2021/01/29 10:19:06;;;;;;;4.25;0.95;;;10.40;99.90;;;;;;5072832;28;20378;-62
2021/01/29 10:21:56;;;;;;;18.45;4.05;;;10.50;99.90;;;;;;5070814;28;20381;-63
2021/01/29 10:24:34;;;;;;;10.32;1.23;;;10.50;99.90;;;;;;5070437;28;20027;-62
2021/01/29 10:27:08;;;;;;;11.32;1.25;;;10.50;99.90;;;;;;5071809;28;20071;-60
2021/01/29 10:29:38;;;;;;;9.15;2.65;;;10.60;99.90;;;;;;5072430;28;20055;-70
2021/01/29 10:32:15;;;;;;;11.45;3.72;;;10.50;99.90;;;;;;5071348;28;20064;-62
2021/01/29 10:34:54;;;;;;;7.43;1.30;;;10.60;99.90;;;;;;5072102;28;20028;-63
2021/01/29 10:37:58;;;;;;;7.88;1.55;;;10.60;99.90;;;;;;5071393;28;20064;-63
2021/01/29 10:40:34;;;;;;;12.38;1.60;;;10.60;99.90;;;;;;5012566;28;20066;-63
2021/01/29 10:43:24;;;;;;;7.60;1.73;;;10.70;99.90;;;;;;5071524;28;20090;-62
2021/01/29 10:45:57;;;;;;;7.32;1.30;;;10.70;99.90;;;;;;5030339;28;20046;-62
2021/01/29 10:48:52;;;;;;;9.20;1.35;;;10.90;99.90;;;;;;5029298;28;20048;-62
2021/01/29 10:51:36;;;;;;;10.05;2.10;;;11.00;99.90;;;;;;5029520;28;20391;-61
2021/01/29 10:54:04;;;;;;;14.27;1.77;;;11.00;99.90;;;;;;5013494;28;20029;-64
2021/01/29 10:56:50;;;;;;;5.15;1.90;;;11.20;99.90;;;;;;5012896;28;20044;-62
2021/01/29 10:59:20;;;;;;;5.47;1.25;;;11.30;99.90;;;;;;5013527;28;20041;-64
2021/01/29 11:02:02;;;;;;;11.25;2.58;;;11.30;99.90;;;;;;5014535;28;20121;-61
2021/01/29 11:04:33;;;;;;;10.50;2.35;;;11.40;99.90;;;;;;5029300;28;20067;-62
2021/01/29 11:07:21;;;;;;;6.68;1.77;;;11.50;99.90;;;;;;5035968;28;20094;-61
2021/01/29 11:09:56;;;;;;;13.32;2.67;;;11.50;99.90;;;;;;5069463;28;20036;-63
2021/01/29 11:12:24;;;;;;;12.45;2.28;;;11.50;99.90;;;;;;5052548;28;20070;-62
2021/01/29 11:15:02;;;;;;;11.88;2.00;;;11.60;99.90;;;;;;5052762;28;20123;-62
2021/01/29 11:17:49;;;;;;;15.10;3.25;;;11.70;99.90;;;;;;5051914;28;20052;-61
2021/01/29 11:20:35;;;;;;;6.18;1.77;;;11.70;99.90;;;;;;5047004;28;20051;-62
2021/01/29 11:23:38;;;;;;;8.70;1.25;;;11.80;99.90;;;;;;5061301;28;20033;-63
2021/01/29 11:26:10;;;;;;;10.55;1.85;;;11.80;99.90;;;;;;5070490;28;20127;-65
2021/01/29 11:29:06;;;;;;;10.30;1.63;;;11.60;99.90;;;;;;5071433;28;20238;-62
2021/01/29 11:31:38;;;;;;;8.77;1.80;;;11.50;99.90;;;;;;5069417;28;20029;-67
2021/01/29 11:34:05;;;;;;;9.35;1.60;;;11.40;99.90;;;;;;5070863;28;20044;-63
2021/01/29 11:36:54;;;;;;;8.95;3.20;;;11.40;99.90;;;;;;5078815;28;20531;-67
2021/01/29 11:39:41;;;;;;;9.55;2.33;;;11.40;99.90;;;;;;5090487;28;20475;-69
2021/01/29 11:42:23;;;;;;;10.38;1.48;;;11.40;99.90;;;;;;5090933;28;20118;-63
2021/01/29 11:45:09;;;;;;;7.57;2.22;;;11.80;99.90;;;;;;5090738;28;20086;-63
2021/01/29 11:47:52;;;;;;;7.07;1.25;;;13.00;99.90;;;;;;5089933;28;20032;-63
2021/01/29 11:50:30;;;;;;;5.40;0.90;;;13.50;99.90;;;;;;5090545;28;20114;-66
2021/01/29 11:53:10;;;;;;;5.82;1.10;;;13.60;99.90;;;;;;5093029;28;20036;-62
2021/01/29 11:55:44;;;;;;;6.85;1.30;;;13.70;99.90;;;;;;5093550;28;20032;-63
2021/01/29 11:58:44;;;;;;;5.38;1.23;;;13.60;99.90;;;;;;5095739;28;20042;-62
2021/01/29 12:01:16;;;;;;;9.88;1.77;;;12.50;99.90;;;;;;5095845;28;20024;-63
2021/01/29 12:04:03;;;;;;;14.02;2.83;;;12.00;99.90;;;;;;5093724;28;20300;-64
2021/01/29 12:06:51;;;;;;;9.60;2.72;;;11.80;99.90;;;;;;5086989;28;20028;-65
2021/01/29 12:09:23;;;;;;;10.80;1.50;;;11.50;99.90;;;;;;5073643;28;20028;-62
2021/01/29 12:12:03;;;;;;;7.90;1.63;;;11.40;99.90;;;;;;5073707;28;20056;-63
2021/01/29 12:14:56;;;;;;;6.13;1.30;;;11.40;99.90;;;;;;5074768;28;20103;-63
2021/01/29 12:17:28;;;;;;;6.13;1.25;;;11.40;99.90;;;;;;5072990;28;20064;-66
2021/01/29 12:20:16;;;;;;;;;;;11.40;99.90;;;;;;5075838;28;20028;-62
2021/01/29 12:22:45;;;;;;;5.05;1.10;;;11.40;99.90;;;;;;5071915;28;19931;-66
2021/01/29 12:25:35;;;;;;;3.03;0.90;;;11.30;99.90;;;;;;5072756;28;20024;-62
2021/01/29 12:28:26;;;;;;;5.70;1.20;;;11.30;99.90;;;;;;5074478;28;20103;-62
2021/01/29 12:31:07;;;;;;;6.63;1.52;;;11.30;99.90;;;;;;5075028;28;20036;-62
2021/01/29 12:33:45;;;;;;;6.90;0.98;;;11.30;99.90;;;;;;5073998;28;20458;-63
2021/01/29 12:36:12;;;;;;;4.28;1.00;;;11.30;99.90;;;;;;5062178;28;20071;-62
2021/01/29 12:38:41;;;;;;;8.30;1.45;;;11.40;99.90;;;;;;5093996;28;20038;-61
2021/01/29 12:41:09;;;;;;;6.78;1.00;;;11.50;99.90;;;;;;5094084;28;20346;-62
2021/01/29 12:43:53;;;;;;;3.53;0.90;;;11.50;99.90;;;;;;5082869;28;20025;-63
2021/01/29 12:46:31;;;;;;;8.02;1.42;;;11.60;99.90;;;;;;5073292;28;20097;-63
2021/01/29 12:49:09;;;;;;;4.88;1.10;;;11.60;99.90;;;;;;5074456;28;20020;-61
2021/01/29 12:51:45;;;;;;;6.38;1.00;;;11.70;99.90;;;;;;5072203;28;20094;-68
2021/01/29 12:54:33;;;;;;;10.73;1.63;;;11.70;99.90;;;;;;5074602;28;20024;-63
2021/01/29 12:57:14;;;;;;;13.95;1.45;;;11.80;99.90;;;;;;5091889;28;20038;-63
2021/01/29 13:00:06;;;;;;;13.15;1.13;;;11.70;99.90;;;;;;5092207;28;20028;-62
2021/01/29 13:02:43;;;;;;;13.85;2.25;;;11.80;99.90;;;;;;5092439;28;20487;-63
2021/01/29 13:05:17;;;;;;;10.95;2.13;;;11.80;99.90;;;;;;5091529;28;20039;-62
2021/01/29 13:08:01;;;;;;;23.05;1.60;;;11.80;99.90;;;;;;5093518;28;20060;-67
2021/01/29 13:10:36;;;;;;;6.53;1.25;;;11.70;99.90;;;;;;5093112;28;20028;-64
2021/01/29 13:13:24;;;;;;;7.35;1.23;;;11.70;99.90;;;;;;5093181;28;20069;-63
2021/01/29 13:15:56;;;;;;;12.35;0.88;;;11.50;99.90;;;;;;5093572;28;20055;-62
2021/01/29 13:18:44;;;;;;;4.55;1.35;;;11.50;99.90;;;;;;5075801;28;20042;-61
2021/01/29 13:21:33;;;;;;;8.48;1.65;;;11.20;99.90;;;;;;5093817;28;20496;-63
2021/01/29 13:24:01;;;;;;;3.65;0.73;;;11.10;99.90;;;;;;5094004;28;20016;-60
2021/01/29 13:26:40;;;;;;;12.88;1.23;;;11.00;99.90;;;;;;5091586;28;20032;-67
2021/01/29 13:29:27;;;;;;;2.65;0.70;;;10.70;99.90;;;;;;5092450;28;20466;-63
2021/01/29 13:32:08;;;;;;;6.53;0.50;;;10.60;99.90;;;;;;5093929;28;20028;-62
2021/01/29 13:34:40;;;;;;;1.45;0.40;;;10.50;99.90;;;;;;5091978;28;20458;-62
2021/01/29 13:37:13;;;;;;;2.25;0.40;;;10.50;99.90;;;;;;5093374;28;20032;-60
2021/01/29 13:39:42;;;;;;;5.72;0.63;;;10.10;99.90;;;;;;5091683;28;20032;-61
2021/01/29 13:42:11;;;;;;;11.05;5.57;;;10.20;99.90;;;;;;5092012;28;20031;-61
2021/01/29 13:44:46;;;;;;;3.75;0.40;;;10.20;99.90;;;;;;5091484;28;20036;-66
2021/01/29 13:47:30;;;;;;;2.03;0.50;;;9.90;99.90;;;;;;5092600;28;20032;-65
2021/01/29 13:50:11;;;;;;;11.93;5.03;;;10.00;99.90;;;;;;5094176;28;20036;-65
2021/01/29 13:52:46;;;;;;;13.05;4.82;;;9.70;99.90;;;;;;5093104;28;20028;-61
2021/01/29 13:55:28;;;;;;;7.88;2.38;;;9.70;99.90;;;;;;5087154;28;20063;-62
2021/01/29 13:58:04;;;;;;;13.57;1.27;;;9.70;99.90;;;;;;5072141;28;20036;-62
2021/01/29 14:00:35;;;;;;;8.60;3.15;;;9.80;99.90;;;;;;5071503;28;20025;-64
2021/01/29 14:03:10;;;;;;;17.17;1.88;;;10.10;99.90;;;;;;5071520;28;20025;-62